Strona główna
METAR-TAF:

METAR-TAF

Lotnisko :

East Hampton Airport

East Hampton, Nowy Jork, Stany Zjednoczone

Szerokość geograficzna: 40-57-34N, Długość geograficzna: 072-15-07W, wysokość: 17 m

Aktualna obserwacja pogody

Raport powstał 20 minut temu, godzina 02:15 UTC
Cisza
Temperatura 6°C
Wilgotność 93%
Ciśnienie 1017 hPa
Widzialność: 16.1 km
bezchmurnie

METAR: KHTO 060215Z AUTO 00000KT 10SM CLR 06/05 A3002 RMK AO2 T00590049

czas: 22:35 (02:35 UTC)


TAF: brakujący

Obserwacja i prognoza pogody dla ponad 4000 lotnisk (raport METAR i TAF).

Dostępne stacje oznaczono żółtymi i czerwonymi punktami na mapie.

Najedź kursorem aby zobaczyć nazwę stacji.

Kliknij aby zobaczyć obserwacje i prognozy pogody.

Aby zmienić mapę: kliknij na zielony przycisk z czarnym krzyżykiem, aby powiększyć; na zielony przycisk z myślnikiem, aby pomniejszyć; na zielone strzałki, aby przejść do map sąsiednich.


METAR-TAF: